sensor_id;sensor_type;location;lat;lon;timestamp;pressure;altitude;pressure_sealevel;temperature;humidity
32320;BME280;19080;51.750;5.888;2024-01-10T00:00:14;102898.22;;;-4.18;77.82
32320;BME280;19080;51.750;5.888;2024-01-10T00:02:41;102897.44;;;-4.17;77.24
32320;BME280;19080;51.750;5.888;2024-01-10T00:05:08;102882.81;;;-4.16;76.90
32320;BME280;19080;51.750;5.888;2024-01-10T00:07:35;102886.50;;;-4.14;76.76
32320;BME280;19080;51.750;5.888;2024-01-10T00:10:04;102877.47;;;-4.18;76.89
32320;BME280;19080;51.750;5.888;2024-01-10T00:12:30;102878.97;;;-4.20;77.19
32320;BME280;19080;51.750;5.888;2024-01-10T00:15:05;102857.94;;;-4.39;77.00
32320;BME280;19080;51.750;5.888;2024-01-10T00:17:32;102907.34;;;-4.21;78.40
32320;BME280;19080;51.750;5.888;2024-01-10T00:19:59;102870.09;;;-4.46;80.09
32320;BME280;19080;51.750;5.888;2024-01-10T00:22:26;102902.66;;;-4.33;81.74
32320;BME280;19080;51.750;5.888;2024-01-10T00:24:52;102905.09;;;-4.34;82.63
32320;BME280;19080;51.750;5.888;2024-01-10T00:27:19;102895.47;;;-4.35;84.31
32320;BME280;19080;51.750;5.888;2024-01-10T00:29:46;102895.31;;;-4.37;84.57
32320;BME280;19080;51.750;5.888;2024-01-10T00:32:12;102892.56;;;-4.38;85.85
32320;BME280;19080;51.750;5.888;2024-01-10T00:34:39;102884.13;;;-4.44;86.08
32320;BME280;19080;51.750;5.888;2024-01-10T00:37:06;102889.22;;;-4.37;87.34
32320;BME280;19080;51.750;5.888;2024-01-10T00:39:32;102890.41;;;-4.42;88.27
32320;BME280;19080;51.750;5.888;2024-01-10T00:41:59;102877.88;;;-4.46;88.69
32320;BME280;19080;51.750;5.888;2024-01-10T00:44:26;102885.97;;;-4.43;89.92
32320;BME280;19080;51.750;5.888;2024-01-10T00:46:52;102886.72;;;-4.44;90.73
32320;BME280;19080;51.750;5.888;2024-01-10T00:49:19;102894.44;;;-4.53;92.35
32320;BME280;19080;51.750;5.888;2024-01-10T00:51:46;102852.66;;;-4.72;94.01
32320;BME280;19080;51.750;5.888;2024-01-10T00:54:12;102875.19;;;-4.55;94.53
32320;BME280;19080;51.750;5.888;2024-01-10T00:56:39;102883.47;;;-4.50;95.16
32320;BME280;19080;51.750;5.888;2024-01-10T00:59:06;102876.53;;;-4.59;95.77
32320;BME280;19080;51.750;5.888;2024-01-10T01:01:32;102885.41;;;-4.56;95.89
32320;BME280;19080;51.750;5.888;2024-01-10T01:03:59;102824.34;;;-4.86;96.74
32320;BME280;19080;51.750;5.888;2024-01-10T01:06:26;102870.69;;;-4.65;97.53
32320;BME280;19080;51.750;5.888;2024-01-10T01:08:52;102864.44;;;-4.67;98.27
32320;BME280;19080;51.750;5.888;2024-01-10T01:11:19;102864.69;;;-4.72;99.78
32320;BME280;19080;51.750;5.888;2024-01-10T01:13:46;102866.03;;;-4.76;100.00
32320;BME280;19080;51.750;5.888;2024-01-10T01:16:12;102870.03;;;-4.71;100.00
32320;BME280;19080;51.750;5.888;2024-01-10T01:18:39;102886.66;;;-4.69;100.00
32320;BME280;19080;51.750;5.888;2024-01-10T01:21:06;102872.78;;;-4.69;100.00
32320;BME280;19080;51.750;5.888;2024-01-10T01:23:32;102861.19;;;-4.73;100.00
32320;BME280;19080;51.750;5.888;2024-01-10T01:26:07;102837.06;;;-4.96;100.00
32320;BME280;19080;51.750;5.888;2024-01-10T01:28:34;102874.38;;;-4.78;100.00
32320;BME280;19080;51.750;5.888;2024-01-10T01:31:01;102868.72;;;-4.83;100.00
32320;BME280;19080;51.750;5.888;2024-01-10T01:33:28;102870.88;;;-4.79;100.00
32320;BME280;19080;51.750;5.888;2024-01-10T01:35:55;102872.47;;;-4.88;100.00
32320;BME280;19080;51.750;5.888;2024-01-10T01:38:22;102871.03;;;-4.93;100.00
32320;BME280;19080;51.750;5.888;2024-01-10T01:40:49;102840.97;;;-5.15;100.00
32320;BME280;19080;51.750;5.888;2024-01-10T01:43:20;102880.16;;;-4.97;100.00
32320;BME280;19080;51.750;5.888;2024-01-10T01:45:51;102862.19;;;-4.95;100.00
32320;BME280;19080;51.750;5.888;2024-01-10T01:48:19;102852.16;;;-4.92;100.00
32320;BME280;19080;51.750;5.888;2024-01-10T01:50:49;102842.22;;;-4.96;100.00
32320;BME280;19080;51.750;5.888;2024-01-10T01:53:17;102861.03;;;-4.90;100.00
32320;BME280;19080;51.750;5.888;2024-01-10T01:55:46;102837.47;;;-5.00;100.00
32320;BME280;19080;51.750;5.888;2024-01-10T01:58:13;102851.00;;;-4.87;100.00
32320;BME280;19080;51.750;5.888;2024-01-10T02:00:40;102851.00;;;-4.87;100.00
32320;BME280;19080;51.750;5.888;2024-01-10T02:03:09;102812.81;;;-4.97;100.00
32320;BME280;19080;51.750;5.888;2024-01-10T02:05:37;102844.97;;;-4.79;100.00
32320;BME280;19080;51.750;5.888;2024-01-10T02:08:04;102845.13;;;-4.77;100.00
32320;BME280;19080;51.750;5.888;2024-01-10T02:10:31;102840.72;;;-4.78;100.00
32320;BME280;19080;51.750;5.888;2024-01-10T02:12:58;102839.97;;;-4.77;100.00
32320;BME280;19080;51.750;5.888;2024-01-10T02:15:24;102823.59;;;-4.85;100.00
32320;BME280;19080;51.750;5.888;2024-01-10T02:17:51;102839.22;;;-4.76;100.00
32320;BME280;19080;51.750;5.888;2024-01-10T02:20:18;102841.22;;;-4.74;100.00
32320;BME280;19080;51.750;5.888;2024-01-10T02:22:45;102825.44;;;-4.84;100.00
32320;BME280;19080;51.750;5.888;2024-01-10T02:25:13;102837.97;;;-4.80;100.00
32320;BME280;19080;51.750;5.888;2024-01-10T02:27:40;102798.53;;;-4.93;100.00
32320;BME280;19080;51.750;5.888;2024-01-10T02:30:08;102833.53;;;-4.81;100.00
32320;BME280;19080;51.750;5.888;2024-01-10T02:32:35;102836.88;;;-4.82;100.00
32320;BME280;19080;51.750;5.888;2024-01-10T02:35:04;102843.56;;;-4.84;100.00
32320;BME280;19080;51.750;5.888;2024-01-10T02:37:31;102832.13;;;-4.86;100.00
32320;BME280;19080;51.750;5.888;2024-01-10T02:39:57;102843.72;;;-4.82;100.00
32320;BME280;19080;51.750;5.888;2024-01-10T02:42:24;102840.72;;;-4.78;100.00
32320;BME280;19080;51.750;5.888;2024-01-10T02:44:51;102826.94;;;-4.86;100.00
32320;BME280;19080;51.750;5.888;2024-01-10T02:47:18;102844.97;;;-4.79;100.00
32320;BME280;19080;51.750;5.888;2024-01-10T02:49:44;102844.06;;;-4.79;100.00
32320;BME280;19080;51.750;5.888;2024-01-10T02:52:11;102844.31;;;-4.85;100.00
32320;BME280;19080;51.750;5.888;2024-01-10T02:54:39;102836.88;;;-4.82;100.00
32320;BME280;19080;51.750;5.888;2024-01-10T02:57:06;102847.56;;;-4.79;100.00
32320;BME280;19080;51.750;5.888;2024-01-10T02:59:32;102824.44;;;-4.93;100.00
32320;BME280;19080;51.750;5.888;2024-01-10T03:01:59;102847.06;;;-4.83;100.00
32320;BME280;19080;51.750;5.888;2024-01-10T03:04:26;102845.72;;;-4.80;100.00
32320;BME280;19080;51.750;5.888;2024-01-10T03:06:52;102841.88;;;-4.83;100.00
32320;BME280;19080;51.750;5.888;2024-01-10T03:09:19;102836.97;;;-4.89;100.00
32320;BME280;19080;51.750;5.888;2024-01-10T03:11:45;102804.41;;;-5.03;100.00
32320;BME280;19080;51.750;5.888;2024-01-10T03:14:12;102808.31;;;-5.06;100.00
32320;BME280;19080;51.750;5.888;2024-01-10T03:16:39;102844.31;;;-4.85;100.00
32320;BME280;19080;51.750;5.888;2024-01-10T03:19:06;102824.75;;;-4.90;100.00
32320;BME280;19080;51.750;5.888;2024-01-10T03:21:32;102823.25;;;-4.88;100.00
32320;BME280;19080;51.750;5.888;2024-01-10T03:24:00;102818.66;;;-4.91;100.00
32320;BME280;19080;51.750;5.888;2024-01-10T03:26:28;102818.09;;;-4.88;100.00
32320;BME280;19080;51.750;5.888;2024-01-10T03:28:57;102795.28;;;-4.99;100.00
32320;BME280;19080;51.750;5.888;2024-01-10T03:31:24;102825.00;;;-4.80;100.00
32320;BME280;19080;51.750;5.888;2024-01-10T03:33:50;102821.75;;;-4.86;100.00
32320;BME280;19080;51.750;5.888;2024-01-10T03:36:17;102806.72;;;-4.97;100.00
32320;BME280;19080;51.750;5.888;2024-01-10T03:38:45;102826.44;;;-4.91;100.00
32320;BME280;19080;51.750;5.888;2024-01-10T03:41:15;102817.66;;;-5.00;100.00
32320;BME280;19080;51.750;5.888;2024-01-10T03:43:43;102821.84;;;-4.93;100.00
32320;BME280;19080;51.750;5.888;2024-01-10T03:46:10;102818.59;;;-4.99;100.00
32320;BME280;19080;51.750;5.888;2024-01-10T03:48:37;102812.00;;;-5.04;100.00
32320;BME280;19080;51.750;5.888;2024-01-10T03:51:05;102810.50;;;-5.02;100.00
32320;BME280;19080;51.750;5.888;2024-01-10T03:53:31;102803.47;;;-5.03;100.00
32320;BME280;19080;51.750;5.888;2024-01-10T03:55:58;102763.59;;;-5.21;100.00
32320;BME280;19080;51.750;5.888;2024-01-10T03:58:25;102804.97;;;-5.05;100.00
32320;BME280;19080;51.750;5.888;2024-01-10T04:00:52;102796.13;;;-5.07;100.00
32320;BME280;19080;51.750;5.888;2024-01-10T04:03:19;102808.75;;;-5.10;100.00
32320;BME280;19080;51.750;5.888;2024-01-10T04:05:46;102803.22;;;-5.13;100.00
32320;BME280;19080;51.750;5.888;2024-01-10T04:08:13;102789.53;;;-5.12;100.00
32320;BME280;19080;51.750;5.888;2024-01-10T04:10:44;102784.94;;;-5.15;100.00
32320;BME280;19080;51.750;5.888;2024-01-10T04:13:10;102775.78;;;-5.20;100.00
32320;BME280;19080;51.750;5.888;2024-01-10T04:15:37;102795.53;;;-5.05;100.00
32320;BME280;19080;51.750;5.888;2024-01-10T04:18:04;102795.78;;;-5.10;100.00
32320;BME280;19080;51.750;5.888;2024-01-10T04:20:31;102797.78;;;-5.08;100.00
32320;BME280;19080;51.750;5.888;2024-01-10T04:22:58;102799.72;;;-5.14;100.00
32320;BME280;19080;51.750;5.888;2024-01-10T04:25:24;102790.69;;;-5.17;100.00
32320;BME280;19080;51.750;5.888;2024-01-10T04:27:51;102794.66;;;-5.21;100.00
32320;BME280;19080;51.750;5.888;2024-01-10T04:30:18;102783.38;;;-5.21;100.00
32320;BME280;19080;51.750;5.888;2024-01-10T04:32:45;102743.41;;;-5.48;100.00
32320;BME280;19080;51.750;5.888;2024-01-10T04:35:11;102777.53;;;-5.28;100.00
32320;BME280;19080;51.750;5.888;2024-01-10T04:37:38;102771.44;;;-5.28;100.00
32320;BME280;19080;51.750;5.888;2024-01-10T04:40:05;102758.69;;;-5.27;100.00
32320;BME280;19080;51.750;5.888;2024-01-10T04:42:34;102769.38;;;-5.23;100.00
32320;BME280;19080;51.750;5.888;2024-01-10T04:45:01;102760.75;;;-5.31;100.00
32320;BME280;19080;51.750;5.888;2024-01-10T04:47:28;102765.34;;;-5.29;100.00
32320;BME280;19080;51.750;5.888;2024-01-10T04:49:55;102754.00;;;-5.38;100.00
32320;BME280;19080;51.750;5.888;2024-01-10T04:52:22;102767.44;;;-5.33;100.00
32320;BME280;19080;51.750;5.888;2024-01-10T04:54:49;102756.94;;;-5.35;100.00
32320;BME280;19080;51.750;5.888;2024-01-10T04:57:16;102763.78;;;-5.35;100.00
32320;BME280;19080;51.750;5.888;2024-01-10T04:59:43;102759.50;;;-5.35;100.00
32320;BME280;19080;51.750;5.888;2024-01-10T05:02:10;102755.50;;;-5.40;100.00
32320;BME280;19080;51.750;5.888;2024-01-10T05:04:37;102746.50;;;-5.43;100.00
32320;BME280;19080;51.750;5.888;2024-01-10T05:07:04;102756.59;;;-5.38;100.00
32320;BME280;19080;51.750;5.888;2024-01-10T05:09:30;102765.09;;;-5.39;100.00
32320;BME280;19080;51.750;5.888;2024-01-10T05:11:57;102757.19;;;-5.40;100.00
32320;BME280;19080;51.750;5.888;2024-01-10T05:14:24;102773.63;;;-5.40;100.00
32320;BME280;19080;51.750;5.888;2024-01-10T05:16:51;102767.28;;;-5.50;100.00
32320;BME280;19080;51.750;5.888;2024-01-10T05:19:20;102775.88;;;-5.43;100.00
32320;BME280;19080;51.750;5.888;2024-01-10T05:21:46;102768.78;;;-5.52;100.00
32320;BME280;19080;51.750;5.888;2024-01-10T05:24:13;102744.31;;;-5.63;100.00
32320;BME280;19080;51.750;5.888;2024-01-10T05:26:40;102775.53;;;-5.46;100.00
32320;BME280;19080;51.750;5.888;2024-01-10T05:29:06;102787.38;;;-5.48;100.00
32320;BME280;19080;51.750;5.888;2024-01-10T05:31:34;102761.66;;;-5.62;100.00
32320;BME280;19080;51.750;5.888;2024-01-10T05:34:00;102775.19;;;-5.49;100.00
32320;BME280;19080;51.750;5.888;2024-01-10T05:36:27;102776.28;;;-5.47;100.00
32320;BME280;19080;51.750;5.888;2024-01-10T05:38:54;102760.16;;;-5.60;100.00
32320;BME280;19080;51.750;5.888;2024-01-10T05:41:21;102778.94;;;-5.54;100.00
32320;BME280;19080;51.750;5.888;2024-01-10T05:43:47;102775.44;;;-5.54;100.00
32320;BME280;19080;51.750;5.888;2024-01-10T05:46:14;102760.06;;;-5.69;100.00
32320;BME280;19080;51.750;5.888;2024-01-10T05:48:42;102765.59;;;-5.66;100.00
32320;BME280;19080;51.750;5.888;2024-01-10T05:51:09;102767.50;;;-5.72;100.00
32320;BME280;19080;51.750;5.888;2024-01-10T05:53:36;102773.50;;;-5.64;100.00
32320;BME280;19080;51.750;5.888;2024-01-10T05:56:05;102776.84;;;-5.65;100.00
32320;BME280;19080;51.750;5.888;2024-01-10T05:58:32;102789.28;;;-5.70;100.00
32320;BME280;19080;51.750;5.888;2024-01-10T06:00:59;102781.28;;;-5.64;100.00
32320;BME280;19080;51.750;5.888;2024-01-10T06:03:25;102764.31;;;-5.69;100.00
32320;BME280;19080;51.750;5.888;2024-01-10T06:05:52;102740.44;;;-5.82;100.00
32320;BME280;19080;51.750;5.888;2024-01-10T06:08:19;102775.25;;;-5.72;100.00
32320;BME280;19080;51.750;5.888;2024-01-10T06:10:47;102737.06;;;-5.90;100.00
32320;BME280;19080;51.750;5.888;2024-01-10T06:13:13;102756.31;;;-5.79;100.00
32320;BME280;19080;51.750;5.888;2024-01-10T06:15:40;102759.56;;;-5.73;100.00
32320;BME280;19080;51.750;5.888;2024-01-10T06:18:08;102766.41;;;-5.74;100.00
32320;BME280;19080;51.750;5.888;2024-01-10T06:20:34;102777.66;;;-5.73;100.00
32320;BME280;19080;51.750;5.888;2024-01-10T06:23:04;102775.84;;;-5.74;100.00
32320;BME280;19080;51.750;5.888;2024-01-10T06:25:31;102768.06;;;-5.74;100.00
32320;BME280;19080;51.750;5.888;2024-01-10T06:27:58;102744.94;;;-5.88;100.00
32320;BME280;19080;51.750;5.888;2024-01-10T06:30:24;102768.81;;;-5.75;100.00
32320;BME280;19080;51.750;5.888;2024-01-10T06:32:51;102774.00;;;-5.75;100.00
32320;BME280;19080;51.750;5.888;2024-01-10T06:35:18;102726.38;;;-5.93;100.00
32320;BME280;19080;51.750;5.888;2024-01-10T06:37:45;102778.00;;;-5.70;100.00
32320;BME280;19080;51.750;5.888;2024-01-10T06:40:12;102772.00;;;-5.78;100.00
32320;BME280;19080;51.750;5.888;2024-01-10T06:42:38;102765.16;;;-5.77;100.00
32320;BME280;19080;51.750;5.888;2024-01-10T06:45:06;102769.97;;;-5.80;100.00
32320;BME280;19080;51.750;5.888;2024-01-10T06:47:34;102763.66;;;-5.75;100.00
32320;BME280;19080;51.750;5.888;2024-01-10T06:50:02;102765.50;;;-5.74;100.00
32320;BME280;19080;51.750;5.888;2024-01-10T06:52:29;102758.22;;;-5.85;100.00
32320;BME280;19080;51.750;5.888;2024-01-10T06:54:55;102759.41;;;-5.91;100.00
32320;BME280;19080;51.750;5.888;2024-01-10T06:57:23;102765.56;;;-5.81;100.00
32320;BME280;19080;51.750;5.888;2024-01-10T06:59:50;102772.41;;;-5.82;100.00
32320;BME280;19080;51.750;5.888;2024-01-10T07:02:17;102771.81;;;-5.79;100.00
32320;BME280;19080;51.750;5.888;2024-01-10T07:04:43;102769.66;;;-5.83;100.00
32320;BME280;19080;51.750;5.888;2024-01-10T07:07:10;102775.16;;;-5.80;100.00
32320;BME280;19080;51.750;5.888;2024-01-10T07:09:38;102776.66;;;-5.82;100.00
32320;BME280;19080;51.750;5.888;2024-01-10T07:12:06;102781.00;;;-5.74;100.00
32320;BME280;19080;51.750;5.888;2024-01-10T07:14:33;102774.81;;;-5.83;100.00
32320;BME280;19080;51.750;5.888;2024-01-10T07:16:59;102768.16;;;-5.81;100.00
32320;BME280;19080;51.750;5.888;2024-01-10T07:19:26;102760.78;;;-5.85;100.00
32320;BME280;19080;51.750;5.888;2024-01-10T07:21:53;102741.53;;;-5.96;100.00
32320;BME280;19080;51.750;5.888;2024-01-10T07:24:21;102725.94;;;-6.05;100.00
32320;BME280;19080;51.750;5.888;2024-01-10T07:26:48;102771.47;;;-5.82;100.00
32320;BME280;19080;51.750;5.888;2024-01-10T07:29:15;102772.75;;;-5.79;100.00
32320;BME280;19080;51.750;5.888;2024-01-10T07:31:41;102772.91;;;-5.93;100.00
32320;BME280;19080;51.750;5.888;2024-01-10T07:34:08;102792.50;;;-5.95;100.00
32320;BME280;19080;51.750;5.888;2024-01-10T07:36:41;102781.31;;;-6.03;100.00
32320;BME280;19080;51.750;5.888;2024-01-10T07:39:09;102780.38;;;-6.03;100.00
32320;BME280;19080;51.750;5.888;2024-01-10T07:41:36;102795.44;;;-5.92;100.00
32320;BME280;19080;51.750;5.888;2024-01-10T07:44:03;102775.16;;;-5.96;100.00
32320;BME280;19080;51.750;5.888;2024-01-10T07:46:30;102800.25;;;-5.79;100.00
32320;BME280;19080;51.750;5.888;2024-01-10T07:48:56;102796.09;;;-5.86;100.00
32320;BME280;19080;51.750;5.888;2024-01-10T07:51:23;102775.66;;;-5.92;100.00
32320;BME280;19080;51.750;5.888;2024-01-10T07:53:50;102796.75;;;-5.80;100.00
32320;BME280;19080;51.750;5.888;2024-01-10T07:56:16;102797.28;;;-5.75;100.00
32320;BME280;19080;51.750;5.888;2024-01-10T07:58:46;102775.66;;;-5.92;100.00
32320;BME280;19080;51.750;5.888;2024-01-10T08:01:14;102787.69;;;-5.76;100.00
32320;BME280;19080;51.750;5.888;2024-01-10T08:03:41;102782.84;;;-5.73;100.00
32320;BME280;19080;51.750;5.888;2024-01-10T08:06:08;102751.72;;;-5.82;100.00
32320;BME280;19080;51.750;5.888;2024-01-10T08:08:49;102777.34;;;-5.61;100.00
32320;BME280;19080;51.750;5.888;2024-01-10T08:11:16;102780.44;;;-5.56;100.00
32320;BME280;19080;51.750;5.888;2024-01-10T08:13:42;102782.72;;;-5.43;100.00
32320;BME280;19080;51.750;5.888;2024-01-10T08:16:09;102776.09;;;-5.17;100.00
32320;BME280;19080;51.750;5.888;2024-01-10T08:18:38;102765.03;;;-4.51;100.00
32320;BME280;19080;51.750;5.888;2024-01-10T08:21:05;102716.78;;;-4.34;100.00
32320;BME280;19080;51.750;5.888;2024-01-10T08:23:31;102739.69;;;-3.97;100.00
32320;BME280;19080;51.750;5.888;2024-01-10T08:25:58;102760.69;;;-3.61;100.00
32320;BME280;19080;51.750;5.888;2024-01-10T08:28:25;102750.50;;;-3.07;100.00
32320;BME280;19080;51.750;5.888;2024-01-10T08:30:52;102770.69;;;-2.96;100.00
32320;BME280;19080;51.750;5.888;2024-01-10T08:33:25;102781.53;;;-3.09;100.00
32320;BME280;19080;51.750;5.888;2024-01-10T08:35:52;102776.78;;;-3.21;100.00
32320;BME280;19080;51.750;5.888;2024-01-10T08:38:18;102770.19;;;-3.52;100.00
32320;BME280;19080;51.750;5.888;2024-01-10T08:40:45;102769.53;;;-3.67;100.00
32320;BME280;19080;51.750;5.888;2024-01-10T08:43:12;102766.22;;;-3.49;100.00
32320;BME280;19080;51.750;5.888;2024-01-10T08:45:38;102744.38;;;-3.42;100.00
32320;BME280;19080;51.750;5.888;2024-01-10T08:48:05;102756.47;;;-2.74;100.00
32320;BME280;19080;51.750;5.888;2024-01-10T08:50:36;102767.56;;;-2.40;94.21
32320;BME280;19080;51.750;5.888;2024-01-10T08:53:03;102774.63;;;-2.56;94.72
32320;BME280;19080;51.750;5.888;2024-01-10T08:55:32;102762.97;;;-2.34;92.57
32320;BME280;19080;51.750;5.888;2024-01-10T08:58:00;102769.22;;;-1.87;88.00
32320;BME280;19080;51.750;5.888;2024-01-10T09:00:27;102768.09;;;-1.26;82.45
32320;BME280;19080;51.750;5.888;2024-01-10T09:02:54;102759.09;;;-1.57;75.20
32320;BME280;19080;51.750;5.888;2024-01-10T09:05:21;102759.00;;;-1.94;77.24
32320;BME280;19080;51.750;5.888;2024-01-10T09:07:49;102769.31;;;-2.05;79.73
32320;BME280;19080;51.750;5.888;2024-01-10T09:10:16;102762.31;;;-2.23;80.57
32320;BME280;19080;51.750;5.888;2024-01-10T09:12:42;102775.78;;;-2.18;82.10
32320;BME280;19080;51.750;5.888;2024-01-10T09:15:13;102761.03;;;-1.73;80.04
32320;BME280;19080;51.750;5.888;2024-01-10T09:17:42;102760.84;;;-1.20;76.16
32320;BME280;19080;51.750;5.888;2024-01-10T09:20:09;102746.53;;;-0.58;71.55
32320;BME280;19080;51.750;5.888;2024-01-10T09:22:37;102752.63;;;0.00;65.95
32320;BME280;19080;51.750;5.888;2024-01-10T09:25:05;102745.94;;;0.04;64.42
32320;BME280;19080;51.750;5.888;2024-01-10T09:27:35;102769.25;;;0.31;61.72
32320;BME280;19080;51.750;5.888;2024-01-10T09:30:02;102772.66;;;0.40;61.29
32320;BME280;19080;51.750;5.888;2024-01-10T09:32:29;102745.50;;;0.69;59.31
32320;BME280;19080;51.750;5.888;2024-01-10T09:34:56;102772.69;;;1.53;58.54
32320;BME280;19080;51.750;5.888;2024-01-10T09:37:23;102777.50;;;2.35;54.35
32320;BME280;19080;51.750;5.888;2024-01-10T09:39:50;102752.66;;;2.29;53.54
32320;BME280;19080;51.750;5.888;2024-01-10T09:42:17;102771.47;;;2.36;52.70
32320;BME280;19080;51.750;5.888;2024-01-10T09:44:43;102763.81;;;2.94;51.68
32320;BME280;19080;51.750;5.888;2024-01-10T09:47:11;102771.28;;;3.23;50.31
32320;BME280;19080;51.750;5.888;2024-01-10T09:49:39;102770.56;;;3.02;50.33
32320;BME280;19080;51.750;5.888;2024-01-10T09:52:10;102771.81;;;3.07;50.03
32320;BME280;19080;51.750;5.888;2024-01-10T09:54:38;102770.63;;;2.47;49.25
32320;BME280;19080;51.750;5.888;2024-01-10T09:57:07;102770.97;;;2.85;49.88
32320;BME280;19080;51.750;5.888;2024-01-10T09:59:34;102752.63;;;2.51;49.43
32320;BME280;19080;51.750;5.888;2024-01-10T10:02:03;102758.78;;;2.97;48.77
32320;BME280;19080;51.750;5.888;2024-01-10T10:04:31;102747.09;;;3.39;47.60
32320;BME280;19080;51.750;5.888;2024-01-10T10:07:00;102750.78;;;3.89;47.37
32320;BME280;19080;51.750;5.888;2024-01-10T10:09:29;102764.50;;;3.85;45.92
32320;BME280;19080;51.750;5.888;2024-01-10T10:11:58;102774.91;;;4.20;45.07
32320;BME280;19080;51.750;5.888;2024-01-10T10:14:29;102758.03;;;4.66;43.31
32320;BME280;19080;51.750;5.888;2024-01-10T10:17:13;102774.38;;;4.49;42.85
32320;BME280;19080;51.750;5.888;2024-01-10T10:19:41;102764.50;;;4.58;43.22
32320;BME280;19080;51.750;5.888;2024-01-10T10:22:09;102754.03;;;5.49;42.67
32320;BME280;19080;51.750;5.888;2024-01-10T10:24:36;102754.22;;;5.78;41.58
32320;BME280;19080;51.750;5.888;2024-01-10T10:27:08;102759.47;;;6.05;40.69
32320;BME280;19080;51.750;5.888;2024-01-10T10:29:37;102760.13;;;6.29;39.53
32320;BME280;19080;51.750;5.888;2024-01-10T10:32:05;102757.91;;;6.49;39.59
32320;BME280;19080;51.750;5.888;2024-01-10T10:34:33;102753.06;;;6.42;38.60
32320;BME280;19080;51.750;5.888;2024-01-10T10:37:00;102745.34;;;6.45;38.89
32320;BME280;19080;51.750;5.888;2024-01-10T10:39:27;102750.25;;;6.82;38.26
32320;BME280;19080;51.750;5.888;2024-01-10T10:41:54;102739.88;;;7.00;38.00
32320;BME280;19080;51.750;5.888;2024-01-10T10:44:23;102735.94;;;7.08;36.95
32320;BME280;19080;51.750;5.888;2024-01-10T10:46:53;102741.72;;;6.86;37.49
32320;BME280;19080;51.750;5.888;2024-01-10T10:49:51;102741.97;;;7.20;37.20
32320;BME280;19080;51.750;5.888;2024-01-10T10:52:20;102750.78;;;7.21;36.96
32320;BME280;19080;51.750;5.888;2024-01-10T10:54:49;102744.13;;;7.42;35.98
32320;BME280;19080;51.750;5.888;2024-01-10T10:57:17;102730.00;;;7.41;36.24
32320;BME280;19080;51.750;5.888;2024-01-10T10:59:48;102731.16;;;7.61;35.42
32320;BME280;19080;51.750;5.888;2024-01-10T11:02:20;102734.13;;;7.82;35.34
32320;BME280;19080;51.750;5.888;2024-01-10T11:04:54;102737.97;;;7.72;34.83
32320;BME280;19080;51.750;5.888;2024-01-10T11:07:21;102736.09;;;7.55;34.79
32320;BME280;19080;51.750;5.888;2024-01-10T11:09:48;102728.34;;;7.58;34.70
32320;BME280;19080;51.750;5.888;2024-01-10T11:12:32;102740.34;;;7.68;34.53
32320;BME280;19080;51.750;5.888;2024-01-10T11:15:40;102730.25;;;7.92;34.59
32320;BME280;19080;51.750;5.888;2024-01-10T11:18:22;102726.22;;;7.67;34.46
32320;BME280;19080;51.750;5.888;2024-01-10T11:21:19;102728.22;;;7.71;34.57
32320;BME280;19080;51.750;5.888;2024-01-10T11:23:54;102733.41;;;8.01;34.70
32320;BME280;19080;51.750;5.888;2024-01-10T11:26:21;102729.88;;;7.69;33.93
32320;BME280;19080;51.750;5.888;2024-01-10T11:28:48;102731.97;;;7.60;34.41
32320;BME280;19080;51.750;5.888;2024-01-10T11:31:15;102680.00;;;7.44;34.31
32320;BME280;19080;51.750;5.888;2024-01-10T11:33:42;102711.59;;;7.43;34.13
32320;BME280;19080;51.750;5.888;2024-01-10T11:36:17;102707.78;;;7.38;34.16
32320;BME280;19080;51.750;5.888;2024-01-10T11:41:22;102713.78;;;7.50;33.61
32320;BME280;19080;51.750;5.888;2024-01-10T11:44:28;102709.56;;;7.54;33.84
32320;BME280;19080;51.750;5.888;2024-01-10T11:46:56;102702.56;;;7.54;34.23
32320;BME280;19080;51.750;5.888;2024-01-10T11:49:24;102694.81;;;7.88;34.35
32320;BME280;19080;51.750;5.888;2024-01-10T11:51:57;102684.38;;;7.75;33.79
32320;BME280;19080;51.750;5.888;2024-01-10T11:54:40;102709.03;;;8.06;33.52
32320;BME280;19080;51.750;5.888;2024-01-10T11:57:29;102716.69;;;7.86;33.38
32320;BME280;19080;51.750;5.888;2024-01-10T11:59:58;102706.78;;;7.81;34.17
32320;BME280;19080;51.750;5.888;2024-01-10T12:02:32;102717.63;;;8.02;34.08
32320;BME280;19080;51.750;5.888;2024-01-10T12:04:59;102697.38;;;8.03;33.36
32320;BME280;19080;51.750;5.888;2024-01-10T12:07:26;102711.25;;;7.99;33.88
32320;BME280;19080;51.750;5.888;2024-01-10T12:09:54;102697.28;;;7.85;33.80
32320;BME280;19080;51.750;5.888;2024-01-10T12:12:21;102680.59;;;7.55;33.88
32320;BME280;19080;51.750;5.888;2024-01-10T12:14:50;102704.06;;;7.19;34.07
32320;BME280;19080;51.750;5.888;2024-01-10T12:17:17;102680.09;;;6.28;34.78
32320;BME280;19080;51.750;5.888;2024-01-10T12:19:46;102714.09;;;5.69;35.65
32320;BME280;19080;51.750;5.888;2024-01-10T12:22:16;102708.22;;;5.20;36.82
32320;BME280;19080;51.750;5.888;2024-01-10T12:24:44;102703.97;;;4.83;37.44
32320;BME280;19080;51.750;5.888;2024-01-10T12:27:19;102711.41;;;4.64;37.58
32320;BME280;19080;51.750;5.888;2024-01-10T12:29:49;102707.13;;;4.28;38.70
32320;BME280;19080;51.750;5.888;2024-01-10T12:32:18;102677.63;;;3.70;39.51
32320;BME280;19080;51.750;5.888;2024-01-10T12:34:46;102684.78;;;3.24;40.29
32320;BME280;19080;51.750;5.888;2024-01-10T12:37:13;102703.13;;;2.89;40.87
32320;BME280;19080;51.750;5.888;2024-01-10T12:39:39;102700.34;;;2.65;41.56
32320;BME280;19080;51.750;5.888;2024-01-10T12:42:06;102704.66;;;2.52;41.87
32320;BME280;19080;51.750;5.888;2024-01-10T12:44:33;102685.28;;;2.17;42.64
32320;BME280;19080;51.750;5.888;2024-01-10T12:47:00;102712.94;;;2.13;43.29
32320;BME280;19080;51.750;5.888;2024-01-10T12:49:27;102675.47;;;1.92;43.15
32320;BME280;19080;51.750;5.888;2024-01-10T12:51:54;102711.78;;;2.10;43.21
32320;BME280;19080;51.750;5.888;2024-01-10T12:54:21;102714.69;;;2.03;43.93